TimeAKST,TemperatureF,Dew PointF,Humidity,Sea Level PressureIn,VisibilityMPH,Wind Direction,Wind SpeedMPH,Gust SpeedMPH,PrecipitationIn,Events,Conditions,WindDirDegrees,DateUTC
12:53 AM,-2.0,-5.1,87,30.04,9.0,NNW,6.9,-,0.00,,Overcast,330,2013-02-01 09:53:00
1:53 AM,1.0,-2.0,87,30.09,7.0,West,9.2,-,0.00,Snow,Light Snow,270,2013-02-01 10:53:00
2:27 AM,-5.8,-9.4,84,30.09,4.0,West,10.4,-,0.00,Snow,Light Snow,260,2013-02-01 11:27:00
3:53 AM,-9.9,-14.1,82,30.13,10.0,West,8.1,-,0.00,,Overcast,270,2013-02-01 12:53:00
4:53 AM,-15.0,-18.9,82,30.16,10.0,West,3.5,-,N/A,,Mostly Cloudy,270,2013-02-01 13:53:00
5:35 AM,-16.6,-20.2,84,30.17,10.0,West,3.5,-,N/A,,Scattered Clouds,260,2013-02-01 14:35:00
5:53 AM,-16.1,-20.0,82,30.17,10.0,Calm,Calm,-,N/A,,Scattered Clouds,0,2013-02-01 14:53:00
6:00 AM,-16.6,-20.2,84,30.18,10.0,SW,3.5,-,N/A,,Mostly Cloudy,230,2013-02-01 15:00:00
6:53 AM,-17.0,-22.0,78,30.18,10.0,SW,4.6,-,N/A,,Scattered Clouds,230,2013-02-01 15:53:00
7:53 AM,-18.0,-20.9,87,30.20,10.0,SW,3.5,-,N/A,,Scattered Clouds,230,2013-02-01 16:53:00
8:53 AM,-18.0,-20.9,87,30.20,6.0,SSW,4.6,-,N/A,,Scattered Clouds,210,2013-02-01 17:53:00
9:53 AM,-18.0,-22.0,82,30.21,10.0,Calm,Calm,-,N/A,,Scattered Clouds,0,2013-02-01 18:53:00
10:53 AM,-18.9,-23.1,81,30.22,10.0,Calm,Calm,-,N/A,,Scattered Clouds,0,2013-02-01 19:53:00
11:53 AM,-18.9,-23.1,81,30.23,10.0,Calm,Calm,-,N/A,,Partly Cloudy,0,2013-02-01 20:53:00
12:53 PM,-18.0,-20.9,87,30.24,10.0,Calm,Calm,-,N/A,,Partly Cloudy,0,2013-02-01 21:53:00
1:53 PM,-18.9,-23.1,81,30.22,10.0,Calm,Calm,-,N/A,,Partly Cloudy,0,2013-02-01 22:53:00
2:53 PM,-18.0,-23.1,78,30.21,10.0,Calm,Calm,-,N/A,,Partly Cloudy,0,2013-02-01 23:53:00
3:00 PM,-18.4,-23.8,76,30.21,10.0,Calm,Calm,-,N/A,,Clear,0,2013-02-02 00:00:00
3:53 PM,-20.9,-25.1,81,30.21,10.0,Calm,Calm,-,N/A,,Partly Cloudy,0,2013-02-02 00:53:00
3:59 PM,-22.0,-27.4,76,30.20,10.0,Calm,Calm,-,N/A,,Scattered Clouds,0,2013-02-02 00:59:00
4:20 PM,-18.4,-23.8,76,30.19,10.0,NE,4.6,-,N/A,,Mostly Cloudy,50,2013-02-02 01:20:00
4:36 PM,-18.4,-23.8,76,30.18,0.8,ENE,4.6,-,N/A,,Mostly Cloudy,60,2013-02-02 01:36:00
4:42 PM,-18.4,-22.0,84,30.18,1.0,Variable,4.6,-,N/A,,Mostly Cloudy,0,2013-02-02 01:42:00
4:53 PM,-18.0,-22.0,82,30.18,1.0,Variable,4.6,-,N/A,,Mostly Cloudy,0,2013-02-02 01:53:00
5:13 PM,-16.6,-20.2,84,30.17,3.0,NNE,3.5,-,N/A,,Overcast,30,2013-02-02 02:13:00
5:21 PM,-16.6,-20.2,84,30.17,1.0,Calm,Calm,-,N/A,,Mostly Cloudy,0,2013-02-02 02:21:00
5:41 PM,-16.6,-18.4,92,30.16,0.8,Calm,Calm,-,N/A,,Mostly Cloudy,0,2013-02-02 02:41:00
5:53 PM,-17.0,-20.0,86,30.16,1.0,Calm,Calm,-,N/A,,Mostly Cloudy,0,2013-02-02 02:53:00
6:03 PM,-16.6,-20.2,84,30.16,1.5,Calm,Calm,-,N/A,,Overcast,0,2013-02-02 03:03:00
6:26 PM,-14.8,-18.4,84,30.15,3.0,Calm,Calm,-,N/A,,Overcast,0,2013-02-02 03:26:00
6:53 PM,-13.0,-17.0,82,30.15,8.0,NNW,3.5,-,N/A,,Overcast,330,2013-02-02 03:53:00
7:08 PM,-14.8,-18.4,84,30.14,10.0,North,3.5,-,N/A,,Overcast,350,2013-02-02 04:08:00
7:53 PM,-13.0,-17.0,82,30.12,10.0,North,3.5,-,N/A,,Overcast,350,2013-02-02 04:53:00
8:53 PM,-11.0,-14.1,86,30.12,10.0,WNW,3.5,-,N/A,,Overcast,290,2013-02-02 05:53:00
9:53 PM,-9.0,-13.0,83,30.08,9.0,Variable,4.6,-,N/A,,Overcast,0,2013-02-02 06:53:00
10:53 PM,-7.1,-11.0,83,30.05,10.0,North,3.5,-,N/A,,Overcast,10,2013-02-02 07:53:00
11:53 PM,-5.1,-9.0,83,30.03,10.0,NNW,6.9,-,N/A,,Scattered Clouds,340,2013-02-02 08:53:00